Time;durP1;ratioP1;P1;durP2;ratioP2;P2;SDS_P1;SDS_P2;PMS_P1;PMS_P2;Temp;Humidity;BMP_temperature;BMP_pressure;BME280_temperature;BME280_humidity;BME280_pressure;Samples;Min_cycle;Max_cycle;Signal;HPM_P1;HPM_P2
2023/10/07 00:00:32;;;;;;;5.15;0.93;;;;;;;13.33;91.44;98953.63;5104499;28;20111;-62
2023/10/07 00:02:59;;;;;;;1.05;0.95;;;;;;;13.23;91.58;98970.53;5104492;28;20024;-62
2023/10/07 00:05:41;;;;;;;2.88;0.88;;;;;;;13.12;91.80;98979.69;5104657;28;20103;-62
2023/10/07 00:08:08;;;;;;;6.07;1.60;;;;;;;12.94;91.49;98989.09;5104695;28;20032;-61
2023/10/07 00:10:37;;;;;;;1.77;0.98;;;;;;;12.85;91.57;99008.56;5104709;28;20066;-61
2023/10/07 00:13:09;;;;;;;1.75;0.60;;;;;;;12.72;92.13;99008.19;5104320;28;20077;-62
2023/10/07 00:15:36;;;;;;;;;;;;;;;12.63;91.56;99012.03;5104778;28;20027;-61
2023/10/07 00:18:11;;;;;;;2.80;0.77;;;;;;;12.45;91.79;99029.19;5104393;28;19939;-62
2023/10/07 00:20:48;;;;;;;0.68;0.52;;;;;;;12.29;91.75;99039.34;5104374;28;20083;-62
2023/10/07 00:23:18;;;;;;;2.50;1.00;;;;;;;12.13;92.20;99055.53;5103322;28;20031;-62
2023/10/07 00:25:49;;;;;;;3.35;0.90;;;;;;;12.07;92.19;99062.66;5104584;28;20372;-62
2023/10/07 00:28:19;;;;;;;2.40;0.80;;;;;;;11.95;92.07;99070.00;5108301;28;20047;-61
2023/10/07 00:30:45;;;;;;;0.77;0.77;;;;;;;11.85;92.18;99068.66;5107943;28;20027;-62
2023/10/07 00:33:15;;;;;;;1.95;0.80;;;;;;;11.70;92.00;99073.47;5108015;28;20020;-62
2023/10/07 00:35:41;;;;;;;1.85;0.68;;;;;;;11.60;91.18;99080.75;5108007;28;20028;-61
2023/10/07 00:38:14;;;;;;;0.40;0.40;;;;;;;11.54;91.28;99106.94;5107835;28;20028;-62
2023/10/07 00:40:45;;;;;;;0.40;0.40;;;;;;;11.32;89.92;99135.38;5107497;28;20126;-61
2023/10/07 00:43:32;;;;;;;1.05;0.50;;;;;;;11.10;88.35;99151.66;5107542;28;20032;-61
2023/10/07 00:46:10;;;;;;;0.40;0.40;;;;;;;10.81;86.10;99155.97;5107599;28;20032;-61
2023/10/07 00:48:45;;;;;;;0.30;0.30;;;;;;;10.66;84.55;99189.25;5107283;28;20021;-62
2023/10/07 00:51:11;;;;;;;0.28;0.28;;;;;;;10.48;83.31;99212.25;5107545;28;20427;-62
2023/10/07 00:53:46;;;;;;;0.30;0.30;;;;;;;10.32;82.78;99232.53;5107480;28;20376;-61
2023/10/07 00:56:16;;;;;;;0.30;0.30;;;;;;;10.17;82.69;99244.16;5107640;28;20020;-61
2023/10/07 00:58:42;;;;;;;0.30;0.30;;;;;;;10.01;81.01;99247.16;5107482;28;20020;-61
2023/10/07 01:01:12;;;;;;;0.40;0.40;;;;;;;9.86;79.81;99260.47;5107433;28;20085;-62
2023/10/07 01:03:55;;;;;;;0.30;0.30;;;;;;;9.78;79.65;99269.28;5107169;28;20028;-61
2023/10/07 01:06:27;;;;;;;0.32;0.32;;;;;;;9.63;78.72;99270.47;5107562;28;20019;-61
2023/10/07 01:09:08;;;;;;;0.30;0.30;;;;;;;9.62;79.34;99289.50;5106845;28;20027;-61
2023/10/07 01:11:38;;;;;;;0.30;0.30;;;;;;;9.44;78.58;99277.81;5107480;28;20051;-60
2023/10/07 01:14:05;;;;;;;0.30;0.30;;;;;;;9.42;78.95;99300.31;5106989;28;20020;-61
2023/10/07 01:21:49;;;;;;;0.30;0.30;;;;;;;9.22;78.70;99337.00;5107142;28;20024;-61
2023/10/07 01:24:15;;;;;;;0.40;0.40;;;;;;;9.20;79.64;99344.78;5107006;28;20031;-61
2023/10/07 01:26:41;;;;;;;0.57;0.45;;;;;;;9.15;79.99;99357.81;5106998;28;20028;-60
2023/10/07 01:29:13;;;;;;;0.30;0.30;;;;;;;9.10;80.32;99370.03;5106497;28;20020;-60
2023/10/07 01:31:59;;;;;;;0.30;0.30;;;;;;;9.07;80.22;99384.75;5106899;28;20035;-61
2023/10/07 01:34:34;;;;;;;0.32;0.32;;;;;;;8.97;80.07;99379.75;5107034;28;20020;-61
2023/10/07 01:37:08;;;;;;;0.50;0.50;;;;;;;8.95;80.28;99394.44;5106953;28;20099;-61
2023/10/07 01:39:40;;;;;;;0.43;0.43;;;;;;;8.88;80.26;99404.06;5106482;28;20023;-61
2023/10/07 01:42:07;;;;;;;0.50;0.50;;;;;;;8.83;80.86;99402.44;5106930;28;20055;-62
2023/10/07 01:44:38;;;;;;;0.40;0.40;;;;;;;8.76;80.77;99418.06;5106680;28;20053;-62
2023/10/07 01:47:04;;;;;;;0.40;0.40;;;;;;;8.70;81.05;99414.72;5106815;28;20384;-62
2023/10/07 01:49:30;;;;;;;0.30;0.30;;;;;;;8.67;81.25;99426.81;5106505;28;20024;-62
2023/10/07 01:51:56;;;;;;;0.70;0.45;;;;;;;8.60;81.50;99426.97;5106552;28;20020;-62
2023/10/07 01:54:27;;;;;;;0.50;0.50;;;;;;;8.54;80.70;99443.41;5106198;28;20484;-61
2023/10/07 01:56:52;;;;;;;0.35;0.35;;;;;;;8.49;81.20;99442.63;5106371;28;20024;-62
2023/10/07 01:59:18;;;;;;;0.30;0.30;;;;;;;8.45;81.06;99446.97;5106039;28;20019;-61
2023/10/07 02:01:58;;;;;;;0.40;0.40;;;;;;;8.41;81.32;99453.94;5105021;28;20024;-61
2023/10/07 02:04:26;;;;;;;1.17;0.70;;;;;;;8.39;81.90;99455.69;5105561;28;20031;-61
2023/10/07 02:06:54;;;;;;;0.77;0.50;;;;;;;8.31;82.29;99455.81;5106078;28;20047;-61
2023/10/07 02:09:24;;;;;;;0.40;0.40;;;;;;;8.27;82.43;99466.22;5106213;28;20020;-61
2023/10/07 02:11:54;;;;;;;0.40;0.40;;;;;;;8.20;80.97;99470.63;5106259;28;20039;-61
2023/10/07 02:14:24;;;;;;;0.30;0.30;;;;;;;8.22;81.04;99488.69;5105588;28;20095;-61
2023/10/07 02:16:53;;;;;;;0.40;0.40;;;;;;;8.19;81.68;99490.44;5106176;28;20031;-61
2023/10/07 02:19:29;;;;;;;0.40;0.40;;;;;;;8.13;82.16;99495.69;5105969;28;20488;-61
2023/10/07 02:22:06;;;;;;;0.60;0.60;;;;;;;8.09;82.44;99499.22;5106065;28;20084;-61
2023/10/07 02:24:35;;;;;;;0.40;0.40;;;;;;;8.08;83.22;99507.84;5105922;28;20042;-61
2023/10/07 02:27:06;;;;;;;0.40;0.40;;;;;;;7.94;83.29;99500.25;5106108;28;20019;-62
2023/10/07 02:29:35;;;;;;;0.30;0.30;;;;;;;7.99;83.58;99516.56;5105584;28;20012;-61
2023/10/07 02:32:17;;;;;;;0.40;0.40;;;;;;;7.93;84.15;99509.75;5105783;28;20450;-61
2023/10/07 02:34:55;;;;;;;0.40;0.40;;;;;;;7.92;84.29;99518.34;5105778;28;20080;-61
2023/10/07 02:37:21;;;;;;;0.40;0.40;;;;;;;7.85;84.68;99537.41;5105743;28;20024;-61
2023/10/07 02:39:56;;;;;;;0.40;0.40;;;;;;;7.84;84.98;99550.34;5105239;28;20024;-62
2023/10/07 02:42:24;;;;;;;0.32;0.32;;;;;;;7.81;85.33;99553.81;5087219;28;20032;-62
2023/10/07 02:45:05;;;;;;;0.43;0.43;;;;;;;7.72;84.42;99540.97;5105285;28;20036;-61
2023/10/07 02:47:31;;;;;;;0.50;0.50;;;;;;;7.71;84.43;99544.44;5105678;28;20020;-61
2023/10/07 02:50:01;;;;;;;0.40;0.40;;;;;;;7.65;83.46;99553.97;5104433;28;20031;-61
2023/10/07 02:52:34;;;;;;;0.93;0.68;;;;;;;7.68;84.10;99558.25;5105502;28;20023;-61
2023/10/07 02:57:47;;;;;;;0.30;0.30;;;;;;;7.60;84.69;99579.00;5105430;28;20044;-61
2023/10/07 03:00:30;;;;;;;0.40;0.40;;;;;;;7.59;85.16;99586.78;5105210;28;20016;-61
2023/10/07 03:06:06;;;;;;;0.30;0.30;;;;;;;7.50;85.59;99583.41;5104968;28;20083;-61
2023/10/07 03:09:27;;;;;;;0.30;0.30;;;;;;;7.51;85.95;99598.00;5104452;28;20036;-61
2023/10/07 03:11:21;;;;;;;0.55;0.55;;;;;;;7.51;85.27;99615.22;5095724;28;20044;-61
2023/10/07 03:13:49;;;;;;;0.30;0.30;;;;;;;7.53;85.33;99614.34;5086034;28;20031;-61
2023/10/07 03:24:13;;;;;;;0.40;0.40;;;;;;;7.42;86.56;99658.34;5105025;28;20024;-61
2023/10/07 03:26:45;;;;;;;0.30;0.30;;;;;;;7.39;86.57;99653.22;5104962;28;20032;-61
2023/10/07 03:29:24;;;;;;;0.40;0.40;;;;;;;7.40;86.86;99659.22;5104605;28;20485;-61
2023/10/07 03:31:49;;;;;;;0.35;0.35;;;;;;;7.32;86.76;99649.81;5105041;28;20032;-61
2023/10/07 03:34:15;;;;;;;0.30;0.30;;;;;;;7.39;86.58;99639.44;5104946;28;20051;-61
2023/10/07 03:39:23;;;;;;;0.40;0.40;;;;;;;7.57;85.38;99631.53;5104824;28;20362;-61
2023/10/07 03:41:55;;;;;;;0.60;0.43;;;;;;;7.72;84.35;99642.59;5105061;28;20067;-61
2023/10/07 03:44:28;;;;;;;1.30;0.43;;;;;;;7.81;84.48;99654.59;5104666;28;20024;-60
2023/10/07 03:46:54;;;;;;;0.40;0.40;;;;;;;7.87;84.17;99657.13;5104916;28;20044;-61
2023/10/07 03:49:21;;;;;;;0.38;0.38;;;;;;;7.95;83.95;99667.38;5104574;28;20097;-61
2023/10/07 03:51:48;;;;;;;0.30;0.30;;;;;;;7.95;83.80;99664.81;5105026;28;20027;-61
2023/10/07 03:54:24;;;;;;;0.30;0.30;;;;;;;8.04;83.50;99663.84;5105042;28;20031;-60
2023/10/07 03:56:51;;;;;;;0.40;0.40;;;;;;;8.08;83.52;99673.31;5104791;28;20125;-61
2023/10/07 03:59:17;;;;;;;0.30;0.30;;;;;;;8.04;83.46;99666.44;5104677;28;20020;-61
2023/10/07 04:01:45;;;;;;;0.30;0.30;;;;;;;8.08;82.22;99675.88;5106714;28;20028;-62
2023/10/07 04:04:11;;;;;;;0.40;0.40;;;;;;;8.08;81.12;99678.47;5108552;28;20046;-62
2023/10/07 04:06:38;;;;;;;0.40;0.40;;;;;;;8.11;80.69;99678.44;5108626;28;20024;-62
2023/10/07 04:09:07;;;;;;;0.30;0.30;;;;;;;8.15;80.35;99692.16;5108490;28;20027;-61
2023/10/07 04:11:34;;;;;;;0.38;0.38;;;;;;;8.15;79.79;99700.78;5108584;28;20027;-62
2023/10/07 04:14:06;;;;;;;0.40;0.40;;;;;;;8.13;78.75;99696.53;5108233;28;20035;-60
2023/10/07 04:16:33;;;;;;;0.57;0.40;;;;;;;8.15;77.86;99705.97;5108311;28;20035;-62
2023/10/07 04:21:44;;;;;;;0.45;0.45;;;;;;;8.06;77.13;99703.47;5108565;28;20023;-61
2023/10/07 04:24:10;;;;;;;0.40;0.40;;;;;;;8.17;77.09;99727.50;5108053;28;20020;-61
2023/10/07 04:26:51;;;;;;;0.40;0.40;;;;;;;8.16;76.71;99727.53;5108255;28;20050;-61
2023/10/07 04:29:17;;;;;;;0.50;0.50;;;;;;;8.21;77.01;99750.75;5107941;28;20028;-61
2023/10/07 04:31:53;;;;;;;0.40;0.40;;;;;;;8.19;76.53;99750.75;5108236;28;20066;-61
2023/10/07 04:34:19;;;;;;;0.38;0.38;;;;;;;8.12;75.68;99741.31;5107932;28;20024;-61
2023/10/07 04:39:37;;;;;;;0.30;0.30;;;;;;;8.07;75.68;99759.47;5107917;28;20024;-60
2023/10/07 04:42:20;;;;;;;0.40;0.40;;;;;;;7.97;75.43;99745.75;5107616;28;20404;-60
2023/10/07 04:50:00;;;;;;;0.32;0.32;;;;;;;7.91;74.22;99767.34;5107678;28;20040;-61
2023/10/07 04:52:28;;;;;;;0.40;0.40;;;;;;;7.88;73.72;99775.13;5107808;28;20056;-61
2023/10/07 04:54:53;;;;;;;0.30;0.30;;;;;;;7.89;73.32;99770.81;5107408;28;20028;-62
2023/10/07 04:57:39;;;;;;;0.30;0.30;;;;;;;7.88;73.13;99772.53;5107564;28;20046;-61
2023/10/07 05:00:08;;;;;;;0.75;0.75;;;;;;;7.88;73.10;99776.84;5107388;28;20084;-61
2023/10/07 05:02:34;;;;;;;0.40;0.40;;;;;;;7.83;73.20;99766.53;5089385;28;20267;-61
2023/10/07 05:05:00;;;;;;;0.30;0.30;;;;;;;7.82;73.36;99788.09;5107297;28;20023;-61
2023/10/07 05:07:26;;;;;;;0.30;0.30;;;;;;;7.83;73.41;99779.47;5107380;28;20081;-62
2023/10/07 05:09:56;;;;;;;0.43;0.43;;;;;;;7.75;73.05;99779.53;5107397;28;20130;-61
2023/10/07 05:12:22;;;;;;;0.40;0.40;;;;;;;7.77;72.79;99795.03;5106178;28;20506;-62
2023/10/07 05:14:48;;;;;;;0.40;0.40;;;;;;;7.78;72.76;99809.66;5106920;28;20027;-62
2023/10/07 05:17:14;;;;;;;0.40;0.40;;;;;;;7.69;73.26;99789.91;5107329;28;20024;-61
2023/10/07 05:19:39;;;;;;;0.30;0.30;;;;;;;7.77;73.36;99806.22;5107204;28;20051;-61
2023/10/07 05:22:14;;;;;;;0.30;0.30;;;;;;;7.78;72.78;99807.94;5107109;28;20020;-61
2023/10/07 05:24:47;;;;;;;0.30;0.30;;;;;;;7.84;73.07;99813.94;5106992;28;20030;-60
2023/10/07 05:27:12;;;;;;;0.40;0.40;;;;;;;7.83;72.85;99802.72;5107022;28;20032;-62
2023/10/07 05:29:40;;;;;;;0.35;0.35;;;;;;;7.84;72.49;99801.00;5106684;28;20038;-61
2023/10/07 05:32:06;;;;;;;0.32;0.32;;;;;;;7.88;72.64;99821.66;5106816;28;20396;-62
2023/10/07 05:34:33;;;;;;;0.30;0.30;;;;;;;7.89;72.48;99820.78;5085830;28;20488;-62
2023/10/07 05:37:04;;;;;;;0.30;0.30;;;;;;;7.89;72.16;99830.28;5106848;28;20535;-61
2023/10/07 05:39:32;;;;;;;0.40;0.40;;;;;;;7.87;72.00;99843.22;5106887;28;20028;-61
2023/10/07 05:41:58;;;;;;;0.60;0.60;;;;;;;7.92;72.57;99848.34;5106495;28;20376;-61
2023/10/07 05:44:24;;;;;;;2.97;0.85;;;;;;;7.93;72.62;99835.41;5106442;28;20048;-62
2023/10/07 05:46:50;;;;;;;0.30;0.30;;;;;;;7.96;72.78;99816.44;5106773;28;20408;-61
2023/10/07 05:49:16;;;;;;;0.40;0.40;;;;;;;8.02;72.53;99849.97;5106457;28;20021;-61
2023/10/07 05:51:44;;;;;;;0.40;0.40;;;;;;;8.07;71.93;99870.63;5106347;28;20062;-61
2023/10/07 05:54:09;;;;;;;0.60;0.60;;;;;;;8.02;70.55;99867.25;5106231;28;20096;-60
2023/10/07 05:56:35;;;;;;;0.30;0.30;;;;;;;8.08;71.02;99892.19;5106362;28;20066;-68
2023/10/07 05:59:01;;;;;;;0.30;0.30;;;;;;;8.13;69.53;99880.94;5106424;28;20020;-65
2023/10/07 06:01:27;;;;;;;0.40;0.40;;;;;;;8.16;69.80;99872.31;5083529;28;20496;-64
2023/10/07 06:03:52;;;;;;;0.40;0.40;;;;;;;8.23;69.51;99878.28;5096657;28;20034;-61
2023/10/07 06:06:21;;;;;;;0.38;0.38;;;;;;;8.22;68.44;99882.63;5106033;28;20016;-62
2023/10/07 06:08:47;;;;;;;1.00;0.60;;;;;;;8.28;69.22;99881.69;5106151;28;20016;-62
2023/10/07 06:11:12;;;;;;;0.30;0.30;;;;;;;8.29;68.83;99896.38;5105837;28;20083;-63
2023/10/07 06:13:40;;;;;;;0.30;0.30;;;;;;;8.34;68.35;99898.91;5106091;28;20020;-63
2023/10/07 06:16:07;;;;;;;0.30;0.30;;;;;;;8.33;68.99;99892.88;5105905;28;20024;-63
2023/10/07 06:18:34;;;;;;;0.57;0.40;;;;;;;8.36;68.45;99879.91;5105501;28;20073;-62
2023/10/07 06:23:44;;;;;;;0.40;0.40;;;;;;;8.31;66.55;99876.50;5105542;28;20035;-63
2023/10/07 06:26:10;;;;;;;0.30;0.30;;;;;;;8.32;66.54;99896.34;5105887;28;20016;-62
2023/10/07 06:28:38;;;;;;;1.38;0.63;;;;;;;8.31;66.41;99899.78;5087299;28;20020;-62
2023/10/07 06:31:10;;;;;;;0.30;0.30;;;;;;;8.28;65.68;99886.88;5105647;28;20027;-62
2023/10/07 06:34:03;;;;;;;0.40;0.40;;;;;;;8.28;65.37;99903.25;5105750;28;20474;-63
2023/10/07 06:36:30;;;;;;;0.32;0.32;;;;;;;8.28;65.30;99923.06;5105781;28;20039;-63
2023/10/07 06:38:58;;;;;;;0.43;0.40;;;;;;;8.28;64.67;99912.72;5105734;28;20016;-62
2023/10/07 06:41:28;;;;;;;0.50;0.50;;;;;;;8.26;65.16;99904.97;5105321;28;20055;-62
2023/10/07 06:43:59;;;;;;;0.35;0.35;;;;;;;8.23;63.43;99930.00;5105422;28;20051;-61
2023/10/07 06:46:29;;;;;;;0.75;0.55;;;;;;;8.25;64.36;99933.44;5105289;28;20392;-62
2023/10/07 06:48:54;;;;;;;0.43;0.38;;;;;;;8.29;64.13;99924.81;5105654;28;20028;-62
2023/10/07 06:51:20;;;;;;;0.30;0.30;;;;;;;8.34;63.86;99933.38;5105379;28;20020;-62
2023/10/07 06:53:45;;;;;;;0.35;0.35;;;;;;;8.36;63.50;99948.88;5105578;28;20472;-66
2023/10/07 06:56:21;;;;;;;0.40;0.40;;;;;;;8.44;64.00;99944.53;5105401;28;20028;-63
2023/10/07 06:58:54;;;;;;;0.50;0.50;;;;;;;8.52;62.84;99952.22;5087279;28;20030;-62
2023/10/07 07:01:37;;;;;;;0.45;0.45;;;;;;;8.56;61.61;99953.97;5104967;28;20024;-61
2023/10/07 07:04:14;;;;;;;0.40;0.40;;;;;;;8.51;61.59;99955.69;5105385;28;20076;-62
2023/10/07 07:06:44;;;;;;;1.58;0.50;;;;;;;8.48;61.75;99966.06;5105555;28;20049;-62
2023/10/07 07:09:41;;;;;;;0.40;0.40;;;;;;;8.40;61.61;99953.19;5105093;28;20116;-62
2023/10/07 07:11:57;;;;;;;0.30;0.30;;;;;;;8.40;62.29;99977.31;5104780;28;20110;-63
2023/10/07 07:14:28;;;;;;;0.40;0.40;;;;;;;8.41;62.82;99978.19;5104350;28;20039;-63
2023/10/07 07:16:56;;;;;;;0.40;0.40;;;;;;;8.42;63.56;99978.16;5103871;28;20043;-62
2023/10/07 07:19:22;;;;;;;0.40;0.40;;;;;;;8.48;64.06;99994.53;5104347;28;20034;-62
2023/10/07 07:21:48;;;;;;;0.30;0.30;;;;;;;8.48;64.04;99992.78;5105291;28;20024;-61
2023/10/07 07:24:14;;;;;;;0.55;0.55;;;;;;;8.38;62.85;99992.00;5105056;28;20075;-62
2023/10/07 07:26:40;;;;;;;1.75;0.73;;;;;;;8.37;61.92;100010.94;5104283;28;20028;-61
2023/10/07 07:29:05;;;;;;;0.40;0.40;;;;;;;8.35;62.02;100011.84;5103902;28;20057;-62
2023/10/07 07:31:34;;;;;;;0.82;0.52;;;;;;;8.34;62.15;100026.50;5104902;28;20081;-62
2023/10/07 07:34:09;;;;;;;0.32;0.32;;;;;;;8.32;62.98;100033.41;5104879;28;20024;-61
2023/10/07 07:36:38;;;;;;;0.30;0.30;;;;;;;8.30;63.19;100027.38;5107074;28;20098;-61
2023/10/07 07:39:09;;;;;;;0.52;0.52;;;;;;;8.42;63.80;100035.06;5108997;28;20199;-63
2023/10/07 07:41:54;;;;;;;0.90;0.55;;;;;;;8.42;63.63;100054.91;5090688;28;20048;-62
2023/10/07 07:44:32;;;;;;;0.60;0.60;;;;;;;8.49;63.67;100059.19;5108883;28;20032;-60
2023/10/07 07:46:58;;;;;;;0.47;0.47;;;;;;;8.55;63.42;100071.25;5108781;28;20047;-62
2023/10/07 07:49:27;;;;;;;0.68;0.68;;;;;;;8.61;63.77;100075.56;5108665;28;20545;-62
2023/10/07 07:51:53;;;;;;;0.40;0.40;;;;;;;8.66;64.48;100068.59;5108797;28;20023;-62
2023/10/07 07:54:18;;;;;;;0.35;0.35;;;;;;;8.75;63.23;100071.16;5108764;28;20270;-61
2023/10/07 07:56:45;;;;;;;0.43;0.40;;;;;;;8.73;61.56;100069.44;5108939;28;20024;-62
2023/10/07 07:59:15;;;;;;;0.38;0.38;;;;;;;8.75;60.87;100086.69;5108625;28;20016;-62
2023/10/07 08:01:50;;;;;;;0.40;0.40;;;;;;;8.76;61.29;100083.22;5108468;28;20020;-61
2023/10/07 08:04:17;;;;;;;0.40;0.40;;;;;;;8.85;61.19;100087.47;5108538;28;20124;-61
2023/10/07 08:06:46;;;;;;;0.40;0.40;;;;;;;8.88;60.76;100087.44;5108632;28;20023;-61
2023/10/07 08:09:12;;;;;;;0.40;0.40;;;;;;;8.89;59.94;100086.59;5108499;28;20024;-61
2023/10/07 08:11:38;;;;;;;1.10;0.40;;;;;;;8.93;59.83;100083.09;5108406;28;20383;-61
2023/10/07 08:14:09;;;;;;;0.40;0.40;;;;;;;9.04;59.48;100088.19;5090241;28;20371;-61
2023/10/07 08:16:46;;;;;;;0.60;0.60;;;;;;;9.17;60.42;100101.94;5108373;28;20039;-62
2023/10/07 08:19:13;;;;;;;1.45;0.40;;;;;;;9.21;59.21;100110.53;5108365;28;20514;-62
2023/10/07 08:21:39;;;;;;;0.40;0.40;;;;;;;9.22;59.63;100107.06;5108100;28;20032;-62
2023/10/07 08:24:06;;;;;;;0.40;0.40;;;;;;;9.27;59.60;100122.56;5108343;28;20028;-61
2023/10/07 08:26:34;;;;;;;0.40;0.40;;;;;;;9.32;60.27;100123.41;5107976;28;20073;-62
2023/10/07 08:29:00;;;;;;;0.40;0.40;;;;;;;9.42;60.98;100125.03;5108274;28;20050;-62
2023/10/07 08:31:37;;;;;;;0.30;0.30;;;;;;;9.49;61.50;100131.03;5107951;28;20024;-62
2023/10/07 08:36:33;;;;;;;0.45;0.45;;;;;;;9.69;62.24;100148.16;5108072;28;20027;-63
2023/10/07 08:38:59;;;;;;;0.55;0.55;;;;;;;9.78;61.76;100152.38;5108255;28;20173;-62
2023/10/07 08:41:28;;;;;;;1.10;0.52;;;;;;;9.82;60.64;100142.84;5107781;28;20496;-62
2023/10/07 08:44:04;;;;;;;0.55;0.50;;;;;;;9.82;61.37;100141.13;5107661;28;20035;-62
2023/10/07 08:46:33;;;;;;;0.40;0.40;;;;;;;9.84;60.63;100154.06;5107510;28;20484;-62
2023/10/07 08:49:05;;;;;;;0.40;0.40;;;;;;;9.79;59.64;100162.75;5107634;28;20020;-62
2023/10/07 08:51:39;;;;;;;;;;;;;;;9.75;55.50;100167.97;5108295;28;20020;-62
2023/10/07 08:54:10;;;;;;;0.47;0.47;;;;;;;9.81;59.27;100174.84;5107797;28;19914;-62
2023/10/07 08:56:37;;;;;;;0.40;0.40;;;;;;;9.90;59.87;100170.41;5107968;28;20032;-63
2023/10/07 08:59:12;;;;;;;0.40;0.40;;;;;;;9.85;58.50;100151.47;5107680;28;20031;-62
2023/10/07 09:01:41;;;;;;;0.43;0.43;;;;;;;9.96;58.25;100171.25;5107427;28;20028;-62
2023/10/07 09:04:07;;;;;;;0.57;0.47;;;;;;;9.99;57.60;100173.81;5107573;28;20035;-61
2023/10/07 09:06:43;;;;;;;0.40;0.40;;;;;;;10.05;56.53;100168.56;5107714;28;20016;-61
2023/10/07 09:09:11;;;;;;;1.35;0.68;;;;;;;10.07;56.54;100168.53;5107426;28;20573;-62
2023/10/07 09:11:37;;;;;;;0.63;0.60;;;;;;;10.24;56.80;100182.19;5089550;28;20079;-62
2023/10/07 09:14:17;;;;;;;0.55;0.50;;;;;;;10.27;54.89;100169.19;5107324;28;20020;-62
2023/10/07 09:16:43;;;;;;;0.40;0.40;;;;;;;10.20;54.26;100164.94;5107071;28;20045;-61
2023/10/07 09:19:12;;;;;;;0.63;0.50;;;;;;;10.22;54.33;100167.53;5107133;28;20024;-62
2023/10/07 09:21:42;;;;;;;0.60;0.60;;;;;;;10.19;53.60;100181.41;5107154;28;20028;-61
2023/10/07 09:24:23;;;;;;;0.50;0.50;;;;;;;10.03;53.37;100180.69;5107056;28;20030;-61
2023/10/07 09:26:56;;;;;;;0.30;0.30;;;;;;;10.22;54.77;100183.97;5106878;28;20388;-61
2023/10/07 09:29:27;;;;;;;0.40;0.40;;;;;;;10.29;53.12;100177.81;5106945;28;20107;-62
2023/10/07 09:32:16;;;;;;;0.77;0.60;;;;;;;10.28;54.01;100178.72;5107104;28;20031;-62
2023/10/07 09:34:44;;;;;;;0.40;0.40;;;;;;;10.43;53.61;100199.31;5106667;28;20434;-61
2023/10/07 09:37:17;;;;;;;0.30;0.30;;;;;;;10.52;54.76;100207.88;5106791;28;20032;-62
2023/10/07 09:39:44;;;;;;;0.43;0.43;;;;;;;10.70;55.33;100212.88;5106730;28;20369;-62
2023/10/07 09:42:56;;;;;;;0.35;0.35;;;;;;;10.80;55.42;100198.03;5106842;28;20034;-64
2023/10/07 09:45:27;;;;;;;0.50;0.50;;;;;;;10.79;54.07;100197.19;5092291;28;20035;-63
2023/10/07 09:47:54;;;;;;;0.55;0.50;;;;;;;10.74;53.71;100191.16;5107029;28;20047;-62
2023/10/07 09:52:57;;;;;;;0.57;0.57;;;;;;;10.87;53.54;100197.94;5106662;28;20024;-61
2023/10/07 09:55:40;;;;;;;0.73;0.60;;;;;;;10.96;53.54;100198.72;5106471;28;20380;-63
2023/10/07 09:58:26;;;;;;;0.30;0.30;;;;;;;11.26;53.77;100201.75;5106465;28;20030;-62
2023/10/07 10:01:05;;;;;;;0.63;0.60;;;;;;;11.74;52.94;100195.78;5106180;28;20464;-62
2023/10/07 10:03:51;;;;;;;0.47;0.40;;;;;;;12.13;51.83;100202.97;5106690;28;20488;-62
2023/10/07 10:06:47;;;;;;;0.30;0.30;;;;;;;12.23;51.92;100200.19;5106165;28;20035;-62
2023/10/07 10:09:14;;;;;;;0.40;0.40;;;;;;;11.96;50.84;100212.78;5106390;28;20020;-61
2023/10/07 10:16:44;;;;;;;0.65;0.45;;;;;;;11.63;50.50;100216.78;5105849;28;20027;-62
2023/10/07 10:19:22;;;;;;;0.40;0.40;;;;;;;11.82;51.62;100213.88;5106393;28;20028;-63
2023/10/07 10:21:50;;;;;;;1.77;0.50;;;;;;;12.02;52.56;100212.69;5106180;28;20024;-61
2023/10/07 10:24:16;;;;;;;1.65;0.60;;;;;;;12.06;52.72;100229.94;5106234;28;20031;-63
2023/10/07 10:26:44;;;;;;;0.30;0.30;;;;;;;12.11;51.56;100222.94;5105910;28;20054;-65
2023/10/07 10:29:16;;;;;;;2.75;0.40;;;;;;;11.90;50.67;100214.59;5105851;28;20444;-62
2023/10/07 10:31:49;;;;;;;0.47;0.47;;;;;;;11.86;51.16;100228.56;5105994;28;20024;-62
2023/10/07 10:34:15;;;;;;;0.80;0.70;;;;;;;11.81;52.65;100229.50;5105991;28;20125;-62
2023/10/07 10:36:48;;;;;;;0.30;0.30;;;;;;;11.90;53.01;100232.81;5105592;28;20464;-62
2023/10/07 10:39:19;;;;;;;17.65;1.15;;;;;;;11.83;52.04;100225.13;5105791;28;20408;-62
2023/10/07 10:41:49;;;;;;;0.50;0.50;;;;;;;11.95;52.72;100232.72;5104873;28;20044;-62
2023/10/07 10:44:16;;;;;;;0.35;0.35;;;;;;;12.18;49.77;100238.44;5105217;28;20027;-62
2023/10/07 10:46:51;;;;;;;0.35;0.35;;;;;;;12.18;50.28;100230.66;5104612;28;20403;-62
2023/10/07 10:49:24;;;;;;;0.43;0.43;;;;;;;12.08;50.62;100238.63;5104602;28;20317;-62
2023/10/07 10:51:54;;;;;;;1.48;0.88;;;;;;;12.03;51.45;100253.41;5104667;28;20027;-62
2023/10/07 10:54:22;;;;;;;0.50;0.50;;;;;;;12.08;51.70;100249.03;5104670;28;20020;-63
2023/10/07 10:56:58;;;;;;;0.30;0.30;;;;;;;11.96;49.68;100254.41;5104953;28;20046;-62
2023/10/07 10:59:43;;;;;;;1.27;0.85;;;;;;;11.99;51.82;100265.63;5104761;28;20016;-63
2023/10/07 11:02:17;;;;;;;0.50;0.50;;;;;;;12.03;52.19;100272.50;5104519;28;20534;-63
2023/10/07 11:04:46;;;;;;;1.55;0.40;;;;;;;12.18;52.88;100272.28;5104692;28;20024;-63
2023/10/07 11:07:14;;;;;;;0.40;0.40;;;;;;;12.23;52.72;100280.88;5104657;28;20024;-64
2023/10/07 11:09:41;;;;;;;0.50;0.50;;;;;;;12.26;52.95;100275.63;5104098;28;20024;-63
2023/10/07 11:12:12;;;;;;;0.30;0.30;;;;;;;12.57;54.17;100267.22;5103473;28;20028;-63
2023/10/07 11:14:39;;;;;;;0.63;0.50;;;;;;;13.11;53.58;100275.75;5104267;28;20023;-63
2023/10/07 11:17:05;;;;;;;0.40;0.40;;;;;;;13.37;52.63;100270.84;5104446;28;20028;-63
2023/10/07 11:19:31;;;;;;;0.30;0.30;;;;;;;13.54;52.29;100280.94;5104470;28;20028;-62
2023/10/07 11:21:57;;;;;;;0.40;0.38;;;;;;;13.42;48.89;100278.56;5104389;28;20043;-63
2023/10/07 11:24:28;;;;;;;0.57;0.40;;;;;;;13.21;49.33;100278.16;5104310;28;20016;-62
2023/10/07 11:26:56;;;;;;;0.30;0.30;;;;;;;13.09;50.37;100276.66;5104350;28;20374;-62
2023/10/07 11:29:24;;;;;;;0.30;0.30;;;;;;;12.81;47.50;100272.84;5104376;28;20028;-62
2023/10/07 11:31:58;;;;;;;0.50;0.50;;;;;;;12.67;48.94;100280.09;5085912;28;20057;-63
2023/10/07 11:34:50;;;;;;;0.30;0.30;;;;;;;12.75;50.18;100273.84;5104480;28;20043;-63
2023/10/07 11:37:21;;;;;;;1.77;0.60;;;;;;;12.64;47.55;100271.44;5099919;28;20047;-62
2023/10/07 11:39:48;;;;;;;0.47;0.47;;;;;;;12.62;49.49;100277.59;5062929;28;1163442;-62
2023/10/07 11:42:18;;;;;;;0.32;0.32;;;;;;;12.55;50.53;100294.19;5105029;28;20032;-60
2023/10/07 11:44:49;;;;;;;0.43;0.40;;;;;;;12.58;50.96;100288.94;5104903;28;20054;-61
2023/10/07 11:47:16;;;;;;;0.55;0.55;;;;;;;12.58;50.22;100288.94;5104790;28;20082;-62
2023/10/07 11:49:48;;;;;;;0.80;0.50;;;;;;;12.54;48.89;100284.69;5104753;28;20035;-62
2023/10/07 11:52:19;;;;;;;0.40;0.40;;;;;;;12.31;45.87;100278.13;5104859;28;20252;-62
2023/10/07 11:54:44;;;;;;;1.23;0.50;;;;;;;12.25;47.16;100289.53;5104996;28;20047;-62
2023/10/07 11:57:10;;;;;;;0.32;0.32;;;;;;;12.13;47.37;100287.97;5105103;28;20078;-62
2023/10/07 11:59:41;;;;;;;0.30;0.30;;;;;;;12.09;48.39;100291.53;5104468;28;20418;-62
2023/10/07 12:02:10;;;;;;;0.30;0.30;;;;;;;12.13;48.19;100294.06;5104872;28;20066;-61
2023/10/07 12:04:46;;;;;;;0.40;0.40;;;;;;;12.01;47.68;100305.47;5104485;28;20252;-62
2023/10/07 12:07:14;;;;;;;3.05;0.60;;;;;;;11.99;48.98;100304.66;5104920;28;20383;-61
2023/10/07 12:09:46;;;;;;;0.20;0.20;;;;;;;11.89;44.59;100298.75;5104646;28;20031;-62
2023/10/07 12:12:13;;;;;;;0.63;0.45;;;;;;;11.76;46.01;100310.19;5105119;28;20020;-62
2023/10/07 12:14:38;;;;;;;0.88;0.60;;;;;;;11.77;47.51;100311.94;5104597;28;20020;-61
2023/10/07 12:17:07;;;;;;;0.30;0.30;;;;;;;11.81;47.56;100303.19;5104961;28;20024;-61
2023/10/07 12:19:34;;;;;;;0.55;0.43;;;;;;;11.78;45.25;100308.44;5104863;28;20113;-62
2023/10/07 12:22:00;;;;;;;0.68;0.68;;;;;;;11.71;45.99;100306.81;5105789;28;20027;-62
2023/10/07 12:24:26;;;;;;;0.60;0.50;;;;;;;11.66;45.80;100309.50;5108621;28;20035;-63
2023/10/07 12:26:54;;;;;;;0.50;0.50;;;;;;;11.74;46.86;100312.81;5108331;28;20039;-63
2023/10/07 12:29:20;;;;;;;0.40;0.40;;;;;;;11.78;44.98;100298.91;5108308;28;20032;-62
2023/10/07 12:31:47;;;;;;;0.70;0.60;;;;;;;11.78;44.04;100313.63;5107865;28;20414;-62
2023/10/07 12:34:16;;;;;;;0.38;0.38;;;;;;;11.77;45.59;100302.38;5108236;28;20020;-62
2023/10/07 12:36:42;;;;;;;0.40;0.40;;;;;;;11.89;44.38;100311.75;5107761;28;20031;-62